sensor_id;sensor_type;location;lat;lon;timestamp;noise_LAeq;noise_LA_min;noise_LA_max;noise_LA01;noise_LA95
47923;Laerm;33688;44.354;9.228;2024-02-23T00:01:05;35.90;35.14;40.98;;
47923;Laerm;33688;44.354;9.228;2024-02-23T00:03:33;35.89;35.11;43.90;;
47923;Laerm;33688;44.354;9.228;2024-02-23T00:06:00;36.07;35.05;52.22;;
47923;Laerm;33688;44.354;9.228;2024-02-23T00:08:47;35.89;35.20;43.07;;
47923;Laerm;33688;44.354;9.228;2024-02-23T00:11:13;36.51;35.11;57.15;;
47923;Laerm;33688;44.354;9.228;2024-02-23T00:13:39;35.94;34.98;43.55;;
47923;Laerm;33688;44.354;9.228;2024-02-23T00:16:05;36.83;35.07;59.39;;
47923;Laerm;33688;44.354;9.228;2024-02-23T00:18:30;36.11;34.87;53.09;;
47923;Laerm;33688;44.354;9.228;2024-02-23T00:20:56;36.00;35.13;50.25;;
47923;Laerm;33688;44.354;9.228;2024-02-23T00:23:22;36.91;35.06;59.94;;
47923;Laerm;33688;44.354;9.228;2024-02-23T00:25:48;36.23;35.24;43.24;;
47923;Laerm;33688;44.354;9.228;2024-02-23T00:28:13;37.61;35.32;62.64;;
47923;Laerm;33688;44.354;9.228;2024-02-23T00:30:39;36.32;35.27;42.16;;
47923;Laerm;33688;44.354;9.228;2024-02-23T00:33:05;36.44;35.13;52.57;;
47923;Laerm;33688;44.354;9.228;2024-02-23T00:35:30;36.01;35.22;43.86;;
47923;Laerm;33688;44.354;9.228;2024-02-23T00:37:56;36.38;34.94;50.33;;
47923;Laerm;33688;44.354;9.228;2024-02-23T00:40:22;36.26;34.99;50.19;;
47923;Laerm;33688;44.354;9.228;2024-02-23T00:42:51;36.15;35.19;42.21;;
47923;Laerm;33688;44.354;9.228;2024-02-23T00:45:17;35.90;35.23;37.60;;
47923;Laerm;33688;44.354;9.228;2024-02-23T00:48:01;36.09;35.09;43.53;;
47923;Laerm;33688;44.354;9.228;2024-02-23T00:50:27;36.26;35.16;40.73;;
47923;Laerm;33688;44.354;9.228;2024-02-23T00:52:53;36.29;35.32;41.47;;
47923;Laerm;33688;44.354;9.228;2024-02-23T00:55:20;35.99;35.15;46.64;;
47923;Laerm;33688;44.354;9.228;2024-02-23T00:57:46;36.09;35.09;41.36;;
47923;Laerm;33688;44.354;9.228;2024-02-23T01:00:12;36.29;35.31;54.10;;
47923;Laerm;33688;44.354;9.228;2024-02-23T01:02:38;35.99;35.20;40.68;;
47923;Laerm;33688;44.354;9.228;2024-02-23T01:05:05;36.12;34.93;48.35;;
47923;Laerm;33688;44.354;9.228;2024-02-23T01:07:31;36.07;35.21;44.86;;
47923;Laerm;33688;44.354;9.228;2024-02-23T01:09:58;35.93;35.03;40.97;;
47923;Laerm;33688;44.354;9.228;2024-02-23T01:12:25;36.08;35.22;40.41;;
47923;Laerm;33688;44.354;9.228;2024-02-23T01:14:51;35.89;35.10;37.93;;
47923;Laerm;33688;44.354;9.228;2024-02-23T01:17:16;35.93;35.16;40.84;;
47923;Laerm;33688;44.354;9.228;2024-02-23T01:19:43;35.90;35.10;37.71;;
47923;Laerm;33688;44.354;9.228;2024-02-23T01:22:10;35.97;35.21;38.80;;
47923;Laerm;33688;44.354;9.228;2024-02-23T01:24:36;36.98;35.12;60.10;;
47923;Laerm;33688;44.354;9.228;2024-02-23T01:27:02;36.03;35.23;46.97;;
47923;Laerm;33688;44.354;9.228;2024-02-23T01:29:27;35.99;35.10;47.65;;
47923;Laerm;33688;44.354;9.228;2024-02-23T01:31:53;36.64;35.20;58.10;;
47923;Laerm;33688;44.354;9.228;2024-02-23T01:34:22;35.98;35.04;38.17;;
47923;Laerm;33688;44.354;9.228;2024-02-23T01:36:48;36.03;35.21;40.08;;
47923;Laerm;33688;44.354;9.228;2024-02-23T01:39:14;35.93;35.17;40.95;;
47923;Laerm;33688;44.354;9.228;2024-02-23T01:41:40;36.02;35.06;49.03;;
47923;Laerm;33688;44.354;9.228;2024-02-23T01:44:06;36.59;35.19;44.11;;
47923;Laerm;33688;44.354;9.228;2024-02-23T01:46:33;36.03;35.22;48.27;;
47923;Laerm;33688;44.354;9.228;2024-02-23T01:48:59;35.95;35.22;39.83;;
47923;Laerm;33688;44.354;9.228;2024-02-23T01:51:25;35.93;35.27;38.44;;
47923;Laerm;33688;44.354;9.228;2024-02-23T01:53:51;36.42;35.19;42.62;;
47923;Laerm;33688;44.354;9.228;2024-02-23T01:56:17;36.11;35.27;40.94;;
47923;Laerm;33688;44.354;9.228;2024-02-23T01:58:46;35.93;35.02;39.06;;
47923;Laerm;33688;44.354;9.228;2024-02-23T02:01:13;35.92;35.11;39.21;;
47923;Laerm;33688;44.354;9.228;2024-02-23T02:03:40;36.00;35.13;45.97;;
47923;Laerm;33688;44.354;9.228;2024-02-23T02:06:09;35.94;35.15;40.21;;
47923;Laerm;33688;44.354;9.228;2024-02-23T02:08:39;36.47;35.12;44.97;;
47923;Laerm;33688;44.354;9.228;2024-02-23T02:11:05;36.70;35.17;45.65;;
47923;Laerm;33688;44.354;9.228;2024-02-23T02:13:32;35.98;35.04;42.66;;
47923;Laerm;33688;44.354;9.228;2024-02-23T02:16:01;36.22;35.10;43.60;;
47923;Laerm;33688;44.354;9.228;2024-02-23T02:18:30;35.99;35.13;45.45;;
47923;Laerm;33688;44.354;9.228;2024-02-23T02:20:57;36.94;35.23;43.39;;
47923;Laerm;33688;44.354;9.228;2024-02-23T02:23:24;36.50;35.02;51.42;;
47923;Laerm;33688;44.354;9.228;2024-02-23T02:25:58;38.50;35.26;63.96;;
47923;Laerm;33688;44.354;9.228;2024-02-23T02:28:25;36.20;35.22;41.84;;
47923;Laerm;33688;44.354;9.228;2024-02-23T02:30:52;36.14;35.10;39.69;;
47923;Laerm;33688;44.354;9.228;2024-02-23T02:33:18;36.49;35.20;42.86;;
47923;Laerm;33688;44.354;9.228;2024-02-23T02:35:44;36.18;35.29;47.61;;
47923;Laerm;33688;44.354;9.228;2024-02-23T02:38:30;37.97;35.10;61.82;;
47923;Laerm;33688;44.354;9.228;2024-02-23T02:40:59;37.02;35.32;44.45;;
47923;Laerm;33688;44.354;9.228;2024-02-23T02:43:27;36.52;35.23;53.82;;
47923;Laerm;33688;44.354;9.228;2024-02-23T02:45:53;36.24;35.09;39.87;;
47923;Laerm;33688;44.354;9.228;2024-02-23T02:48:19;36.14;35.29;47.26;;
47923;Laerm;33688;44.354;9.228;2024-02-23T02:50:45;36.08;34.89;46.12;;
47923;Laerm;33688;44.354;9.228;2024-02-23T02:53:17;36.34;35.18;48.81;;
47923;Laerm;33688;44.354;9.228;2024-02-23T02:55:43;36.24;35.22;41.15;;
47923;Laerm;33688;44.354;9.228;2024-02-23T02:58:12;36.63;35.23;41.48;;
47923;Laerm;33688;44.354;9.228;2024-02-23T03:00:38;37.00;35.26;49.29;;
47923;Laerm;33688;44.354;9.228;2024-02-23T03:03:31;37.39;35.27;49.82;;
47923;Laerm;33688;44.354;9.228;2024-02-23T03:05:57;37.91;35.19;50.67;;
47923;Laerm;33688;44.354;9.228;2024-02-23T03:08:23;36.96;35.34;50.49;;
47923;Laerm;33688;44.354;9.228;2024-02-23T03:10:48;38.05;35.30;61.06;;
47923;Laerm;33688;44.354;9.228;2024-02-23T03:13:14;36.47;35.23;42.15;;
47923;Laerm;33688;44.354;9.228;2024-02-23T03:15:40;36.72;35.26;50.82;;
47923;Laerm;33688;44.354;9.228;2024-02-23T03:18:06;36.54;35.32;52.86;;
47923;Laerm;33688;44.354;9.228;2024-02-23T03:20:35;37.35;35.24;48.60;;
47923;Laerm;33688;44.354;9.228;2024-02-23T03:23:01;38.43;35.54;53.81;;
47923;Laerm;33688;44.354;9.228;2024-02-23T03:25:29;38.71;35.72;48.28;;
47923;Laerm;33688;44.354;9.228;2024-02-23T03:27:55;39.31;35.51;48.84;;
47923;Laerm;33688;44.354;9.228;2024-02-23T03:30:21;38.00;35.30;55.02;;
47923;Laerm;33688;44.354;9.228;2024-02-23T03:32:47;38.72;35.49;57.37;;
47923;Laerm;33688;44.354;9.228;2024-02-23T03:35:13;40.27;35.80;59.35;;
47923;Laerm;33688;44.354;9.228;2024-02-23T03:37:38;40.56;35.52;57.67;;
47923;Laerm;33688;44.354;9.228;2024-02-23T03:40:06;40.27;35.64;52.81;;
47923;Laerm;33688;44.354;9.228;2024-02-23T03:42:32;38.23;35.60;51.82;;
47923;Laerm;33688;44.354;9.228;2024-02-23T03:44:58;38.31;35.43;60.50;;
47923;Laerm;33688;44.354;9.228;2024-02-23T03:47:24;37.77;35.53;54.61;;
47923;Laerm;33688;44.354;9.228;2024-02-23T03:49:50;37.42;35.55;57.79;;
47923;Laerm;33688;44.354;9.228;2024-02-23T03:52:34;37.00;35.42;55.99;;
47923;Laerm;33688;44.354;9.228;2024-02-23T03:55:00;38.03;35.33;59.95;;
47923;Laerm;33688;44.354;9.228;2024-02-23T03:57:26;36.94;35.49;51.50;;
47923;Laerm;33688;44.354;9.228;2024-02-23T03:59:57;37.34;35.50;54.67;;
47923;Laerm;33688;44.354;9.228;2024-02-23T04:02:23;36.91;35.37;53.85;;
47923;Laerm;33688;44.354;9.228;2024-02-23T04:04:49;36.54;35.41;44.04;;
47923;Laerm;33688;44.354;9.228;2024-02-23T04:07:15;36.55;35.32;51.26;;
47923;Laerm;33688;44.354;9.228;2024-02-23T04:09:41;36.40;35.39;47.29;;
47923;Laerm;33688;44.354;9.228;2024-02-23T04:12:08;37.42;35.22;60.28;;
47923;Laerm;33688;44.354;9.228;2024-02-23T04:14:35;36.07;35.23;42.83;;
47923;Laerm;33688;44.354;9.228;2024-02-23T04:17:05;36.47;35.32;49.92;;
47923;Laerm;33688;44.354;9.228;2024-02-23T04:19:33;38.05;35.24;63.81;;
47923;Laerm;33688;44.354;9.228;2024-02-23T04:21:58;36.10;35.10;48.79;;
47923;Laerm;33688;44.354;9.228;2024-02-23T04:24:24;36.46;35.00;42.89;;
47923;Laerm;33688;44.354;9.228;2024-02-23T04:26:51;36.48;35.22;49.61;;
47923;Laerm;33688;44.354;9.228;2024-02-23T04:29:35;38.50;35.13;62.30;;
47923;Laerm;33688;44.354;9.228;2024-02-23T04:32:02;36.18;35.17;47.91;;
47923;Laerm;33688;44.354;9.228;2024-02-23T04:34:28;40.15;35.24;65.12;;
47923;Laerm;33688;44.354;9.228;2024-02-23T04:36:55;41.93;36.08;64.96;;
47923;Laerm;33688;44.354;9.228;2024-02-23T04:39:22;38.32;35.48;62.54;;
47923;Laerm;33688;44.354;9.228;2024-02-23T04:41:50;39.65;35.51;66.87;;
47923;Laerm;33688;44.354;9.228;2024-02-23T04:44:16;39.36;35.39;66.45;;
47923;Laerm;33688;44.354;9.228;2024-02-23T04:46:42;36.36;35.29;47.37;;
47923;Laerm;33688;44.354;9.228;2024-02-23T04:49:08;36.23;35.32;39.09;;
47923;Laerm;33688;44.354;9.228;2024-02-23T04:51:34;36.41;35.10;42.64;;
47923;Laerm;33688;44.354;9.228;2024-02-23T04:54:00;36.40;35.30;49.13;;
47923;Laerm;33688;44.354;9.228;2024-02-23T04:56:25;36.28;35.21;46.72;;
47923;Laerm;33688;44.354;9.228;2024-02-23T04:58:52;36.35;35.39;45.20;;
47923;Laerm;33688;44.354;9.228;2024-02-23T05:01:18;37.97;35.63;62.05;;
47923;Laerm;33688;44.354;9.228;2024-02-23T05:04:12;36.75;35.47;42.76;;
47923;Laerm;33688;44.354;9.228;2024-02-23T05:06:38;36.76;35.52;49.47;;
47923;Laerm;33688;44.354;9.228;2024-02-23T05:09:03;37.21;35.60;49.20;;
47923;Laerm;33688;44.354;9.228;2024-02-23T05:11:30;38.74;36.37;59.05;;
47923;Laerm;33688;44.354;9.228;2024-02-23T05:14:14;39.53;35.93;65.50;;
47923;Laerm;33688;44.354;9.228;2024-02-23T05:16:40;38.02;36.15;51.22;;
47923;Laerm;33688;44.354;9.228;2024-02-23T05:19:06;38.31;35.99;60.76;;
47923;Laerm;33688;44.354;9.228;2024-02-23T05:21:32;40.04;36.42;64.25;;
47923;Laerm;33688;44.354;9.228;2024-02-23T05:23:58;37.76;36.19;48.79;;
47923;Laerm;33688;44.354;9.228;2024-02-23T05:26:24;38.83;36.35;56.58;;
47923;Laerm;33688;44.354;9.228;2024-02-23T05:28:50;39.55;36.26;63.39;;
47923;Laerm;33688;44.354;9.228;2024-02-23T05:31:15;39.09;36.09;60.17;;
47923;Laerm;33688;44.354;9.228;2024-02-23T05:33:42;38.17;35.91;58.75;;
47923;Laerm;33688;44.354;9.228;2024-02-23T05:36:08;38.96;36.09;63.12;;
47923;Laerm;33688;44.354;9.228;2024-02-23T05:38:34;39.14;35.74;62.42;;
47923;Laerm;33688;44.354;9.228;2024-02-23T05:41:00;37.30;35.84;52.42;;
47923;Laerm;33688;44.354;9.228;2024-02-23T05:43:27;38.69;35.80;59.04;;
47923;Laerm;33688;44.354;9.228;2024-02-23T05:45:54;38.25;35.68;62.52;;
47923;Laerm;33688;44.354;9.228;2024-02-23T05:48:22;38.61;35.70;61.73;;
47923;Laerm;33688;44.354;9.228;2024-02-23T05:50:48;39.53;35.87;63.83;;
47923;Laerm;33688;44.354;9.228;2024-02-23T05:53:16;37.59;35.61;55.77;;
47923;Laerm;33688;44.354;9.228;2024-02-23T05:55:43;37.27;35.73;50.13;;
47923;Laerm;33688;44.354;9.228;2024-02-23T05:58:10;37.56;35.68;56.54;;
47923;Laerm;33688;44.354;9.228;2024-02-23T06:00:37;37.90;35.72;58.37;;
47923;Laerm;33688;44.354;9.228;2024-02-23T06:03:04;39.30;35.72;63.37;;
47923;Laerm;33688;44.354;9.228;2024-02-23T06:05:30;36.66;35.64;49.66;;
47923;Laerm;33688;44.354;9.228;2024-02-23T06:07:56;38.09;35.46;63.12;;
47923;Laerm;33688;44.354;9.228;2024-02-23T06:10:21;36.48;35.50;40.45;;
47923;Laerm;33688;44.354;9.228;2024-02-23T06:12:47;38.35;35.43;61.46;;
47923;Laerm;33688;44.354;9.228;2024-02-23T06:15:13;36.75;35.35;50.69;;
47923;Laerm;33688;44.354;9.228;2024-02-23T06:17:39;36.67;35.45;48.62;;
47923;Laerm;33688;44.354;9.228;2024-02-23T06:20:06;36.50;35.34;43.26;;
47923;Laerm;33688;44.354;9.228;2024-02-23T06:22:33;36.38;35.21;48.77;;
47923;Laerm;33688;44.354;9.228;2024-02-23T06:24:59;40.96;35.39;65.60;;
47923;Laerm;33688;44.354;9.228;2024-02-23T06:27:26;37.24;35.33;58.16;;
47923;Laerm;33688;44.354;9.228;2024-02-23T06:29:53;38.19;35.31;63.66;;
47923;Laerm;33688;44.354;9.228;2024-02-23T06:32:18;36.49;35.40;48.00;;
47923;Laerm;33688;44.354;9.228;2024-02-23T06:34:45;38.97;35.37;62.46;;
47923;Laerm;33688;44.354;9.228;2024-02-23T06:37:12;38.52;35.24;61.60;;
47923;Laerm;33688;44.354;9.228;2024-02-23T06:39:39;36.65;35.25;56.92;;
47923;Laerm;33688;44.354;9.228;2024-02-23T06:42:06;36.24;35.22;45.21;;
47923;Laerm;33688;44.354;9.228;2024-02-23T06:44:32;37.29;35.31;57.44;;
47923;Laerm;33688;44.354;9.228;2024-02-23T06:46:58;37.68;35.15;61.70;;
47923;Laerm;33688;44.354;9.228;2024-02-23T06:49:25;36.78;35.13;53.92;;
47923;Laerm;33688;44.354;9.228;2024-02-23T06:51:50;36.46;35.25;51.52;;
47923;Laerm;33688;44.354;9.228;2024-02-23T06:54:18;36.71;35.21;45.33;;
47923;Laerm;33688;44.354;9.228;2024-02-23T06:56:44;38.19;35.13;46.13;;
47923;Laerm;33688;44.354;9.228;2024-02-23T06:59:12;36.46;35.02;51.55;;
47923;Laerm;33688;44.354;9.228;2024-02-23T07:01:59;35.96;35.17;39.12;;
47923;Laerm;33688;44.354;9.228;2024-02-23T07:04:25;36.01;35.01;48.53;;
47923;Laerm;33688;44.354;9.228;2024-02-23T07:06:51;39.57;35.28;56.53;;
47923;Laerm;33688;44.354;9.228;2024-02-23T07:09:17;37.58;35.27;51.93;;
47923;Laerm;33688;44.354;9.228;2024-02-23T07:12:02;36.16;35.26;40.74;;
47923;Laerm;33688;44.354;9.228;2024-02-23T07:14:28;36.84;35.21;52.50;;
47923;Laerm;33688;44.354;9.228;2024-02-23T07:16:55;40.82;35.34;54.64;;
47923;Laerm;33688;44.354;9.228;2024-02-23T07:19:21;36.86;35.06;52.15;;
47923;Laerm;33688;44.354;9.228;2024-02-23T07:21:47;38.76;34.94;63.60;;
47923;Laerm;33688;44.354;9.228;2024-02-23T07:24:13;36.70;35.05;55.99;;
47923;Laerm;33688;44.354;9.228;2024-02-23T07:26:41;36.36;35.19;52.74;;
47923;Laerm;33688;44.354;9.228;2024-02-23T07:29:07;43.99;35.19;63.66;;
47923;Laerm;33688;44.354;9.228;2024-02-23T07:31:34;38.56;35.19;60.44;;
47923;Laerm;33688;44.354;9.228;2024-02-23T07:34:00;37.38;35.09;59.92;;
47923;Laerm;33688;44.354;9.228;2024-02-23T07:36:28;50.13;35.27;66.02;;
47923;Laerm;33688;44.354;9.228;2024-02-23T07:38:56;51.18;35.37;65.83;;
47923;Laerm;33688;44.354;9.228;2024-02-23T07:41:22;37.87;35.21;57.29;;
47923;Laerm;33688;44.354;9.228;2024-02-23T07:43:48;44.62;35.35;60.72;;
47923;Laerm;33688;44.354;9.228;2024-02-23T07:46:16;55.67;35.91;77.31;;
47923;Laerm;33688;44.354;9.228;2024-02-23T07:48:43;54.89;42.28;76.84;;
47923;Laerm;33688;44.354;9.228;2024-02-23T07:51:09;56.83;41.68;82.93;;
47923;Laerm;33688;44.354;9.228;2024-02-23T07:53:36;62.50;42.62;80.94;;
47923;Laerm;33688;44.354;9.228;2024-02-23T07:56:02;64.01;41.62;79.17;;
47923;Laerm;33688;44.354;9.228;2024-02-23T07:58:30;49.70;41.67;70.88;;
47923;Laerm;33688;44.354;9.228;2024-02-23T08:00:56;48.07;41.27;68.31;;
47923;Laerm;33688;44.354;9.228;2024-02-23T08:03:22;47.13;41.48;69.53;;
47923;Laerm;33688;44.354;9.228;2024-02-23T08:05:48;47.30;41.32;64.60;;
47923;Laerm;33688;44.354;9.228;2024-02-23T08:08:16;46.70;41.50;66.91;;
47923;Laerm;33688;44.354;9.228;2024-02-23T08:10:44;46.11;41.55;62.12;;
47923;Laerm;33688;44.354;9.228;2024-02-23T08:13:10;46.77;41.61;63.81;;
47923;Laerm;33688;44.354;9.228;2024-02-23T08:15:36;54.05;41.73;68.99;;
47923;Laerm;33688;44.354;9.228;2024-02-23T08:18:03;58.75;41.80;81.18;;
47923;Laerm;33688;44.354;9.228;2024-02-23T08:20:29;59.84;41.96;83.83;;
47923;Laerm;33688;44.354;9.228;2024-02-23T08:22:56;55.23;41.87;73.42;;
47923;Laerm;33688;44.354;9.228;2024-02-23T08:25:24;54.83;42.35;71.44;;
47923;Laerm;33688;44.354;9.228;2024-02-23T08:27:50;55.05;41.77;69.17;;
47923;Laerm;33688;44.354;9.228;2024-02-23T08:30:17;55.62;41.80;80.19;;
47923;Laerm;33688;44.354;9.228;2024-02-23T08:32:46;58.73;41.87;85.01;;
47923;Laerm;33688;44.354;9.228;2024-02-23T08:35:12;53.22;41.43;68.07;;
47923;Laerm;33688;44.354;9.228;2024-02-23T08:37:38;49.72;41.84;64.89;;
47923;Laerm;33688;44.354;9.228;2024-02-23T08:40:07;59.82;41.69;85.45;;
47923;Laerm;33688;44.354;9.228;2024-02-23T08:42:33;48.45;41.65;70.30;;
47923;Laerm;33688;44.354;9.228;2024-02-23T08:44:59;48.02;41.60;63.12;;
47923;Laerm;33688;44.354;9.228;2024-02-23T08:47:25;47.60;41.12;64.89;;
47923;Laerm;33688;44.354;9.228;2024-02-23T08:49:58;48.88;41.50;64.93;;
47923;Laerm;33688;44.354;9.228;2024-02-23T08:52:24;56.62;41.72;82.82;;
47923;Laerm;33688;44.354;9.228;2024-02-23T08:54:51;45.97;41.42;60.18;;
47923;Laerm;33688;44.354;9.228;2024-02-23T08:57:17;43.31;41.18;58.61;;
47923;Laerm;33688;44.354;9.228;2024-02-23T08:59:46;46.28;41.46;58.14;;
47923;Laerm;33688;44.354;9.228;2024-02-23T09:02:12;49.56;41.71;67.80;;
47923;Laerm;33688;44.354;9.228;2024-02-23T09:04:38;54.61;41.70;64.96;;
47923;Laerm;33688;44.354;9.228;2024-02-23T09:07:04;57.77;41.72;82.58;;
47923;Laerm;33688;44.354;9.228;2024-02-23T09:09:30;56.00;41.57;71.65;;
47923;Laerm;33688;44.354;9.228;2024-02-23T09:11:56;55.65;41.04;68.65;;
47923;Laerm;33688;44.354;9.228;2024-02-23T09:14:22;52.66;40.80;68.81;;
47923;Laerm;33688;44.354;9.228;2024-02-23T09:16:47;47.95;40.29;62.76;;
47923;Laerm;33688;44.354;9.228;2024-02-23T09:19:16;44.47;40.11;62.59;;
47923;Laerm;33688;44.354;9.228;2024-02-23T09:21:42;53.57;40.21;69.27;;
47923;Laerm;33688;44.354;9.228;2024-02-23T09:24:11;51.62;41.08;66.96;;
47923;Laerm;33688;44.354;9.228;2024-02-23T09:26:37;57.33;42.15;82.63;;
47923;Laerm;33688;44.354;9.228;2024-02-23T09:29:03;54.80;40.88;72.65;;
47923;Laerm;33688;44.354;9.228;2024-02-23T09:31:29;52.92;40.01;67.72;;
47923;Laerm;33688;44.354;9.228;2024-02-23T09:33:55;48.21;40.06;63.33;;
47923;Laerm;33688;44.354;9.228;2024-02-23T09:36:21;56.94;40.41;77.36;;
47923;Laerm;33688;44.354;9.228;2024-02-23T09:38:48;58.30;40.12;75.86;;
47923;Laerm;33688;44.354;9.228;2024-02-23T09:41:22;58.54;40.51;83.69;;
47923;Laerm;33688;44.354;9.228;2024-02-23T09:43:49;53.21;40.48;68.79;;
47923;Laerm;33688;44.354;9.228;2024-02-23T09:46:16;56.59;40.71;80.98;;
47923;Laerm;33688;44.354;9.228;2024-02-23T09:48:48;49.97;40.47;66.58;;
47923;Laerm;33688;44.354;9.228;2024-02-23T09:51:15;53.99;40.60;68.61;;
47923;Laerm;33688;44.354;9.228;2024-02-23T09:53:43;48.74;40.74;62.09;;
47923;Laerm;33688;44.354;9.228;2024-02-23T09:56:10;56.50;40.41;81.48;;
47923;Laerm;33688;44.354;9.228;2024-02-23T09:58:39;47.09;40.30;68.27;;
47923;Laerm;33688;44.354;9.228;2024-02-23T10:01:07;58.03;40.45;83.59;;
47923;Laerm;33688;44.354;9.228;2024-02-23T10:03:38;48.21;40.66;64.41;;
47923;Laerm;33688;44.354;9.228;2024-02-23T10:06:04;47.13;40.31;67.94;;
47923;Laerm;33688;44.354;9.228;2024-02-23T10:08:30;52.00;40.46;67.69;;
47923;Laerm;33688;44.354;9.228;2024-02-23T10:10:56;60.52;40.34;87.93;;
47923;Laerm;33688;44.354;9.228;2024-02-23T10:13:23;54.46;40.66;84.09;;
47923;Laerm;33688;44.354;9.228;2024-02-23T10:15:52;56.95;40.53;83.86;;
47923;Laerm;33688;44.354;9.228;2024-02-23T10:18:19;51.91;40.40;68.08;;
47923;Laerm;33688;44.354;9.228;2024-02-23T10:20:47;52.22;40.09;66.42;;
47923;Laerm;33688;44.354;9.228;2024-02-23T10:23:14;51.80;40.16;66.90;;
47923;Laerm;33688;44.354;9.228;2024-02-23T10:25:40;53.86;40.62;78.78;;
47923;Laerm;33688;44.354;9.228;2024-02-23T10:28:06;51.27;40.90;72.69;;
47923;Laerm;33688;44.354;9.228;2024-02-23T10:30:33;50.62;40.41;69.08;;
47923;Laerm;33688;44.354;9.228;2024-02-23T10:32:59;52.72;40.28;77.10;;
47923;Laerm;33688;44.354;9.228;2024-02-23T10:35:26;51.34;40.89;68.70;;
47923;Laerm;33688;44.354;9.228;2024-02-23T10:37:53;48.77;40.72;70.30;;
47923;Laerm;33688;44.354;9.228;2024-02-23T10:40:20;46.93;40.20;65.07;;
47923;Laerm;33688;44.354;9.228;2024-02-23T10:42:51;51.01;40.11;69.87;;
47923;Laerm;33688;44.354;9.228;2024-02-23T10:45:22;61.07;40.31;79.27;;
47923;Laerm;33688;44.354;9.228;2024-02-23T10:47:48;63.84;40.64;80.90;;
47923;Laerm;33688;44.354;9.228;2024-02-23T10:50:16;45.55;40.78;57.35;;
47923;Laerm;33688;44.354;9.228;2024-02-23T10:52:43;54.88;40.35;79.44;;
47923;Laerm;33688;44.354;9.228;2024-02-23T10:55:10;45.08;40.64;59.76;;
47923;Laerm;33688;44.354;9.228;2024-02-23T10:57:38;46.55;40.02;71.89;;
47923;Laerm;33688;44.354;9.228;2024-02-23T11:00:06;51.38;40.57;77.68;;
47923;Laerm;33688;44.354;9.228;2024-02-23T11:02:46;50.32;40.02;68.82;;
47923;Laerm;33688;44.354;9.228;2024-02-23T11:05:14;56.40;40.25;82.59;;
47923;Laerm;33688;44.354;9.228;2024-02-23T11:07:41;58.72;40.68;85.39;;
47923;Laerm;33688;44.354;9.228;2024-02-23T11:10:07;57.04;40.06;75.39;;
47923;Laerm;33688;44.354;9.228;2024-02-23T11:12:35;46.90;40.49;64.49;;
47923;Laerm;33688;44.354;9.228;2024-02-23T11:15:01;46.34;40.34;64.72;;
47923;Laerm;33688;44.354;9.228;2024-02-23T11:17:33;57.23;40.54;83.81;;
47923;Laerm;33688;44.354;9.228;2024-02-23T11:20:02;48.09;40.66;67.91;;
47923;Laerm;33688;44.354;9.228;2024-02-23T11:22:33;44.63;40.40;65.05;;
47923;Laerm;33688;44.354;9.228;2024-02-23T11:25:05;45.19;40.20;64.39;;
47923;Laerm;33688;44.354;9.228;2024-02-23T11:27:33;44.77;40.25;59.93;;
47923;Laerm;33688;44.354;9.228;2024-02-23T11:30:09;55.21;40.17;82.47;;
47923;Laerm;33688;44.354;9.228;2024-02-23T11:32:42;45.93;37.78;64.55;;
47923;Laerm;33688;44.354;9.228;2024-02-23T11:35:11;49.82;35.63;70.73;;
47923;Laerm;33688;44.354;9.228;2024-02-23T11:37:56;42.06;35.25;60.88;;
47923;Laerm;33688;44.354;9.228;2024-02-23T11:40:32;50.01;35.27;65.20;;
47923;Laerm;33688;44.354;9.228;2024-02-23T11:42:58;37.76;35.10;54.76;;
47923;Laerm;33688;44.354;9.228;2024-02-23T11:45:31;40.80;35.14;63.75;;
47923;Laerm;33688;44.354;9.228;2024-02-23T11:47:56;48.36;35.36;64.32;;
47923;Laerm;33688;44.354;9.228;2024-02-23T11:50:22;54.48;35.66;70.97;;
47923;Laerm;33688;44.354;9.228;2024-02-23T11:52:49;41.27;35.22;64.17;;
47923;Laerm;33688;44.354;9.228;2024-02-23T11:55:19;36.00;35.17;39.91;;
47923;Laerm;33688;44.354;9.228;2024-02-23T11:57:49;36.25;35.21;48.16;;
47923;Laerm;33688;44.354;9.228;2024-02-23T12:00:15;36.26;35.25;48.03;;
47923;Laerm;33688;44.354;9.228;2024-02-23T12:02:42;36.06;35.23;45.60;;
47923;Laerm;33688;44.354;9.228;2024-02-23T12:05:08;36.90;35.29;52.60;;
47923;Laerm;33688;44.354;9.228;2024-02-23T12:07:35;37.15;35.19;53.82;;
47923;Laerm;33688;44.354;9.228;2024-02-23T12:10:01;36.63;35.28;51.31;;
47923;Laerm;33688;44.354;9.228;2024-02-23T12:12:31;38.02;35.28;61.55;;
47923;Laerm;33688;44.354;9.228;2024-02-23T12:14:58;36.70;35.18;52.64;;
47923;Laerm;33688;44.354;9.228;2024-02-23T12:17:24;38.53;35.33;59.66;;
47923;Laerm;33688;44.354;9.228;2024-02-23T12:20:02;36.88;35.12;50.53;;
47923;Laerm;33688;44.354;9.228;2024-02-23T12:22:28;36.66;35.18;51.09;;
47923;Laerm;33688;44.354;9.228;2024-02-23T12:25:06;36.65;35.14;49.84;;
47923;Laerm;33688;44.354;9.228;2024-02-23T12:27:33;38.02;35.17;58.03;;
47923;Laerm;33688;44.354;9.228;2024-02-23T12:29:59;39.31;35.30;61.15;;
47923;Laerm;33688;44.354;9.228;2024-02-23T12:32:26;38.45;35.31;58.34;;
47923;Laerm;33688;44.354;9.228;2024-02-23T12:34:55;38.62;35.28;54.74;;
47923;Laerm;33688;44.354;9.228;2024-02-23T12:37:21;37.41;35.30;54.71;;
47923;Laerm;33688;44.354;9.228;2024-02-23T12:39:50;36.45;35.23;53.00;;
47923;Laerm;33688;44.354;9.228;2024-02-23T12:42:18;37.62;35.20;57.94;;
47923;Laerm;33688;44.354;9.228;2024-02-23T12:44:45;37.77;35.22;58.69;;
47923;Laerm;33688;44.354;9.228;2024-02-23T12:47:12;36.40;35.10;52.22;;
47923;Laerm;33688;44.354;9.228;2024-02-23T12:49:38;36.36;35.14;50.75;;
47923;Laerm;33688;44.354;9.228;2024-02-23T12:52:04;38.37;35.11;54.60;;
47923;Laerm;33688;44.354;9.228;2024-02-23T12:54:30;36.19;35.11;46.39;;
47923;Laerm;33688;44.354;9.228;2024-02-23T12:56:56;36.49;35.21;50.67;;
47923;Laerm;33688;44.354;9.228;2024-02-23T12:59:22;36.66;35.14;49.79;;
47923;Laerm;33688;44.354;9.228;2024-02-23T13:01:48;36.58;35.15;46.80;;
47923;Laerm;33688;44.354;9.228;2024-02-23T13:04:14;37.12;35.06;57.81;;
47923;Laerm;33688;44.354;9.228;2024-02-23T13:06:40;36.18;35.17;47.36;;
47923;Laerm;33688;44.354;9.228;2024-02-23T13:09:06;36.06;35.25;40.36;;
47923;Laerm;33688;44.354;9.228;2024-02-23T13:11:35;36.03;35.25;38.87;;
47923;Laerm;33688;44.354;9.228;2024-02-23T13:14:03;36.51;35.12;56.20;;
47923;Laerm;33688;44.354;9.228;2024-02-23T13:16:29;36.15;35.16;51.78;;
47923;Laerm;33688;44.354;9.228;2024-02-23T13:18:56;36.58;35.22;47.59;;
47923;Laerm;33688;44.354;9.228;2024-02-23T13:21:23;35.95;35.18;38.45;;
47923;Laerm;33688;44.354;9.228;2024-02-23T13:23:49;40.14;34.95;60.75;;
47923;Laerm;33688;44.354;9.228;2024-02-23T13:26:15;46.10;35.36;69.32;;
47923;Laerm;33688;44.354;9.228;2024-02-23T13:28:42;47.47;35.17;63.54;;
47923;Laerm;33688;44.354;9.228;2024-02-23T13:31:09;43.90;35.06;65.50;;
47923;Laerm;33688;44.354;9.228;2024-02-23T13:33:35;55.95;35.65;76.79;;
47923;Laerm;33688;44.354;9.228;2024-02-23T13:36:01;49.93;41.85;66.19;;
47923;Laerm;33688;44.354;9.228;2024-02-23T13:38:27;53.98;41.80;71.81;;
47923;Laerm;33688;44.354;9.228;2024-02-23T13:40:53;51.14;41.40;77.24;;
47923;Laerm;33688;44.354;9.228;2024-02-23T13:43:19;50.25;42.27;66.20;;
47923;Laerm;33688;44.354;9.228;2024-02-23T13:45:52;47.59;42.37;63.16;;